createdAt,value
2022-11-06T00:00:30.958Z,76216.34
2022-11-06T00:03:02.999Z,76210.09
2022-11-06T00:05:48.910Z,76208.00
2022-11-06T00:08:26.651Z,76203.84
2022-11-06T00:10:54.679Z,76203.84
2022-11-06T00:13:22.791Z,76208.00
2022-11-06T00:15:51.864Z,76210.09
2022-11-06T00:18:20.349Z,76212.19
2022-11-06T00:20:48.161Z,76216.34
2022-11-06T00:23:16.235Z,76224.66
2022-11-06T00:25:44.041Z,76222.56
2022-11-06T00:28:12.210Z,76235.03
2022-11-06T00:30:40.598Z,76228.81
2022-11-06T00:33:10.659Z,76228.81
2022-11-06T00:35:39.148Z,76228.81
2022-11-06T00:38:07.593Z,76235.03
2022-11-06T00:40:35.667Z,76228.81
2022-11-06T00:43:03.744Z,76237.13
2022-11-06T00:45:31.451Z,76245.44
2022-11-06T00:47:59.956Z,76249.59
2022-11-06T00:50:29.221Z,76253.75
2022-11-06T00:52:57.237Z,76235.03
2022-11-06T00:55:25.078Z,76247.53
2022-11-06T00:57:53.208Z,76239.19
2022-11-06T01:00:22.383Z,76255.84
2022-11-06T01:02:50.599Z,76253.75
2022-11-06T01:05:18.926Z,76249.59
2022-11-06T01:07:48.234Z,76241.28
2022-11-06T01:10:16.208Z,76257.91
2022-11-06T01:12:44.256Z,76249.59
2022-11-06T01:15:12.215Z,76253.75
2022-11-06T01:17:40.299Z,76262.06
2022-11-06T01:20:09.139Z,76260.00
2022-11-06T01:22:37.092Z,76253.75
2022-11-06T01:25:07.934Z,76247.53
2022-11-06T01:27:36.130Z,76245.44
2022-11-06T01:30:04.148Z,76249.59
2022-11-06T01:32:32.550Z,76257.91
2022-11-06T01:35:00.262Z,76257.91
2022-11-06T01:37:28.226Z,76255.84
2022-11-06T01:39:56.259Z,76262.06
2022-11-06T01:42:25.599Z,76257.91
2022-11-06T01:45:30.479Z,76262.06
2022-11-06T01:47:58.819Z,76260.00
2022-11-06T01:50:27.616Z,76260.00
2022-11-06T01:52:56.687Z,76260.00
2022-11-06T01:55:28.208Z,76266.22
2022-11-06T01:57:58.720Z,76264.16
2022-11-06T02:00:27.599Z,76262.06
2022-11-06T02:02:55.961Z,76270.38
2022-11-06T02:05:24.235Z,76262.06
2022-11-06T02:07:54.065Z,76274.53
2022-11-06T02:10:21.987Z,76270.38
2022-11-06T02:13:01.122Z,76282.88
2022-11-06T02:15:37.606Z,76274.53
2022-11-06T02:18:24.080Z,76270.38
2022-11-06T02:21:09.704Z,76266.22
2022-11-06T02:24:01.413Z,76282.88
2022-11-06T02:26:59.487Z,76272.47
2022-11-06T02:29:34.181Z,76287.03
2022-11-06T02:32:07.957Z,76291.19
2022-11-06T02:34:37.900Z,76291.19
2022-11-06T02:37:12.095Z,76287.03
2022-11-06T02:39:44.568Z,76280.78
2022-11-06T02:42:16.002Z,76282.88
2022-11-06T02:44:48.875Z,76270.38
2022-11-06T02:47:19.548Z,76276.63
2022-11-06T02:49:52.411Z,76291.19
2022-11-06T02:52:24.426Z,76291.19
2022-11-06T02:54:57.535Z,76291.19
2022-11-06T02:57:27.627Z,76287.03
2022-11-06T03:00:04.099Z,76270.38
2022-11-06T03:02:40.744Z,76270.38
2022-11-06T03:05:14.034Z,76276.63
2022-11-06T03:07:48.598Z,76274.53
2022-11-06T03:10:17.787Z,76278.69
2022-11-06T03:12:55.665Z,76272.47
2022-11-06T03:15:33.064Z,76262.06
2022-11-06T03:18:07.320Z,76257.91
2022-11-06T03:20:40.987Z,76257.91
2022-11-06T03:23:15.007Z,76255.84
2022-11-06T03:25:48.297Z,76270.38
2022-11-06T03:28:24.872Z,76278.69
2022-11-06T03:30:59.388Z,76268.31
2022-11-06T03:33:33.963Z,76260.00
2022-11-06T03:36:07.305Z,76266.22
2022-11-06T03:38:41.983Z,76266.22
2022-11-06T03:41:15.794Z,76260.00
2022-11-06T03:43:46.910Z,76264.16
2022-11-06T03:46:20.054Z,76266.22
2022-11-06T03:48:49.937Z,76266.22
2022-11-06T03:51:22.320Z,76289.09
2022-11-06T03:53:54.260Z,76307.81
2022-11-06T03:56:27.431Z,76301.56
2022-11-06T03:58:57.272Z,76314.06
2022-11-06T04:01:35.033Z,76295.34
2022-11-06T04:04:07.050Z,76303.66
2022-11-06T04:06:38.447Z,76318.22
2022-11-06T04:09:26.723Z,76316.13
2022-11-06T04:12:15.234Z,76330.69
2022-11-06T04:14:48.218Z,76336.91
2022-11-06T04:17:18.591Z,76328.59
2022-11-06T04:19:51.255Z,76345.22
2022-11-06T04:22:31.948Z,76349.41
2022-11-06T04:25:25.418Z,76341.06
2022-11-06T04:28:07.550Z,76353.56
2022-11-06T04:30:44.800Z,76351.47
2022-11-06T04:33:19.769Z,76347.31
2022-11-06T04:35:59.520Z,76355.63
2022-11-06T04:38:37.315Z,76347.31
2022-11-06T04:41:13.701Z,76343.16
2022-11-06T04:43:47.157Z,76341.06
2022-11-06T04:46:21.075Z,76341.06
2022-11-06T04:48:51.163Z,76332.75
2022-11-06T04:51:23.631Z,76347.31
2022-11-06T04:53:53.179Z,76347.31
2022-11-06T04:56:29.160Z,76341.06
2022-11-06T04:58:58.116Z,76349.41
2022-11-06T05:01:26.035Z,76353.56
2022-11-06T05:03:55.451Z,76366.03
2022-11-06T05:06:28.676Z,76374.34
2022-11-06T05:08:59.040Z,76382.66
2022-11-06T05:11:26.942Z,76382.66
2022-11-06T05:13:54.872Z,76390.97
2022-11-06T05:16:22.676Z,76380.56
2022-11-06T05:18:50.891Z,76361.88
2022-11-06T05:21:37.409Z,76361.88
2022-11-06T05:24:06.468Z,76370.19
2022-11-06T05:26:34.194Z,76390.97
2022-11-06T05:29:02.296Z,76376.41
2022-11-06T05:31:30.222Z,76380.56
2022-11-06T05:33:58.232Z,76390.97
2022-11-06T05:36:27.344Z,76384.72
2022-11-06T05:38:55.595Z,76390.97
2022-11-06T05:41:23.360Z,76401.38
2022-11-06T05:43:51.492Z,76395.13
2022-11-06T05:46:46.530Z,76409.69
2022-11-06T05:49:07.780Z,76424.25
2022-11-06T05:51:37.162Z,76428.41
2022-11-06T05:54:05.435Z,76420.09
2022-11-06T05:56:33.127Z,76422.16
2022-11-06T05:59:01.188Z,76422.16
2022-11-06T06:01:28.988Z,76449.19
2022-11-06T06:03:56.991Z,76440.88
2022-11-06T06:06:25.011Z,76440.88
2022-11-06T06:08:54.428Z,76445.03
2022-11-06T06:11:22.167Z,76447.09
2022-11-06T06:13:50.210Z,76438.78
2022-11-06T06:16:17.933Z,76438.78
2022-11-06T06:18:45.885Z,76440.88
2022-11-06T06:21:14.878Z,76447.09
2022-11-06T06:23:42.932Z,76451.28
2022-11-06T06:26:12.015Z,76457.50
2022-11-06T06:28:40.098Z,76449.19
2022-11-06T06:31:09.708Z,76457.50
2022-11-06T06:33:37.896Z,76432.56
2022-11-06T06:36:06.948Z,76432.56
2022-11-06T06:38:35.013Z,76428.41
2022-11-06T06:41:03.485Z,76432.56
2022-11-06T06:43:33.256Z,76445.03
2022-11-06T06:46:02.703Z,76453.34
2022-11-06T06:48:30.846Z,76449.19
2022-11-06T06:50:59.377Z,76430.47
2022-11-06T06:53:28.314Z,76424.25
2022-11-06T06:55:56.047Z,76424.25
2022-11-06T06:58:24.641Z,76415.91
2022-11-06T07:00:55.577Z,76415.91
2022-11-06T07:03:24.180Z,76428.41
2022-11-06T07:05:51.966Z,76420.09
2022-11-06T07:08:20.051Z,76399.28
2022-11-06T07:10:47.730Z,76395.13
2022-11-06T07:13:16.096Z,76378.50
2022-11-06T07:15:44.142Z,76388.91
2022-11-06T07:18:13.604Z,76434.63
2022-11-06T07:20:41.557Z,76407.59
2022-11-06T07:23:09.908Z,76388.91
2022-11-06T07:25:38.169Z,76374.34
2022-11-06T07:28:08.267Z,76378.50
2022-11-06T07:30:37.048Z,76361.88
2022-11-06T07:33:05.879Z,76349.41
2022-11-06T07:35:36.106Z,76353.56
2022-11-06T07:38:05.529Z,76382.66
2022-11-06T07:40:33.349Z,76368.09
2022-11-06T07:43:04.784Z,76328.59
2022-11-06T07:45:32.588Z,76320.28
2022-11-06T07:48:00.868Z,76303.66
2022-11-06T07:50:29.187Z,76291.19
2022-11-06T07:52:59.006Z,76287.03
2022-11-06T07:55:26.727Z,76276.63
2022-11-06T07:57:54.866Z,76291.19
2022-11-06T08:00:22.587Z,76272.47
2022-11-06T08:02:52.435Z,76257.91
2022-11-06T08:05:20.314Z,76245.44
2022-11-06T08:07:48.478Z,76237.13
2022-11-06T08:10:17.705Z,76230.88
2022-11-06T08:12:45.875Z,76220.50
2022-11-06T08:15:13.580Z,76222.56
2022-11-06T08:17:41.486Z,76216.34
2022-11-06T08:20:10.791Z,76212.19
2022-11-06T08:22:38.847Z,76245.44
2022-11-06T08:25:07.847Z,76232.97
2022-11-06T08:27:37.776Z,76216.34
2022-11-06T08:30:06.348Z,76241.28
2022-11-06T08:32:34.332Z,76228.81
2022-11-06T08:35:02.202Z,76228.81
2022-11-06T08:37:30.180Z,76210.09
2022-11-06T08:39:57.842Z,76199.69
2022-11-06T08:42:26.036Z,76232.97
2022-11-06T08:44:55.045Z,76214.25
2022-11-06T08:47:23.140Z,76208.00
2022-11-06T08:49:51.113Z,76191.38
2022-11-06T08:52:19.201Z,76208.00
2022-11-06T08:54:46.956Z,76203.84
2022-11-06T08:57:15.167Z,76189.31
2022-11-06T08:59:42.869Z,76178.91
2022-11-06T09:02:14.717Z,76199.69
2022-11-06T09:04:42.765Z,76203.84
2022-11-06T09:07:11.035Z,76212.19
2022-11-06T09:09:38.715Z,76212.19
2022-11-06T09:12:08.112Z,76220.50
2022-11-06T09:14:36.633Z,76218.41
2022-11-06T09:17:04.607Z,76216.34
2022-11-06T09:19:34.056Z,76241.28
2022-11-06T09:22:02.025Z,76228.81
2022-11-06T09:24:49.992Z,76212.19
2022-11-06T09:27:18.067Z,76205.94
2022-11-06T09:29:45.732Z,76191.38
2022-11-06T09:32:13.728Z,76172.69
2022-11-06T09:34:42.956Z,76162.28
2022-11-06T09:37:10.915Z,76158.13
2022-11-06T09:39:38.613Z,76178.91
2022-11-06T09:42:17.026Z,76162.28
2022-11-06T09:45:01.603Z,76153.97
2022-11-06T09:47:33.632Z,76145.66
2022-11-06T09:50:05.982Z,76137.34
2022-11-06T09:52:41.383Z,76137.34
2022-11-06T09:55:16.187Z,76143.56
2022-11-06T09:57:49.351Z,76137.34
2022-11-06T10:00:19.191Z,76133.19
2022-11-06T10:02:50.192Z,76145.66
2022-11-06T10:05:26.688Z,76137.34
2022-11-06T10:07:57.130Z,76124.84
2022-11-06T10:10:32.427Z,76149.81
2022-11-06T10:13:17.773Z,76172.69
2022-11-06T10:15:52.589Z,76153.97
2022-11-06T10:18:31.026Z,76145.66
2022-11-06T10:21:09.007Z,76137.34
2022-11-06T10:23:45.227Z,76120.69
2022-11-06T10:26:16.772Z,76120.69
2022-11-06T10:29:16.783Z,76106.16
2022-11-06T10:31:57.299Z,76102.00
2022-11-06T10:34:31.748Z,76095.75
2022-11-06T10:37:05.159Z,76104.06
2022-11-06T10:39:36.285Z,76097.84
2022-11-06T10:42:07.230Z,76133.19
2022-11-06T10:44:40.386Z,76116.53
2022-11-06T10:47:17.586Z,76124.84
2022-11-06T10:49:49.048Z,76120.69
2022-11-06T10:52:39.347Z,76137.34
2022-11-06T10:55:39.743Z,76147.72
2022-11-06T10:58:09.578Z,76166.44
2022-11-06T11:00:38.589Z,76141.50
2022-11-06T11:03:08.993Z,76133.19
2022-11-06T11:05:40.046Z,76137.34
2022-11-06T11:08:33.246Z,76129.00
2022-11-06T11:11:05.203Z,76120.69
2022-11-06T11:13:33.693Z,76120.69
2022-11-06T11:16:03.702Z,76129.00
2022-11-06T11:18:32.221Z,76124.84
2022-11-06T11:21:16.452Z,76118.63
2022-11-06T11:23:46.243Z,76145.66
2022-11-06T11:26:21.099Z,76120.69
2022-11-06T11:28:55.609Z,76129.00
2022-11-06T11:31:31.022Z,76120.69
2022-11-06T11:34:02.181Z,76104.06
2022-11-06T11:36:48.744Z,76095.75
2022-11-06T11:39:19.842Z,76102.00
2022-11-06T11:41:48.078Z,76097.84
2022-11-06T11:44:18.762Z,76072.88
2022-11-06T11:46:48.392Z,76085.34
2022-11-06T11:49:30.900Z,76083.28
2022-11-06T11:52:00.258Z,76079.13
2022-11-06T11:54:33.175Z,76062.50
2022-11-06T11:57:05.718Z,76062.50
2022-11-06T11:59:38.320Z,76027.16
2022-11-06T12:02:20.924Z,76020.91
2022-11-06T12:04:54.543Z,76025.06
2022-11-06T12:07:27.592Z,76058.34
2022-11-06T12:09:57.843Z,76020.91
2022-11-06T12:12:31.590Z,76002.19
2022-11-06T12:15:18.135Z,76006.34
2022-11-06T12:17:53.427Z,75993.88
2022-11-06T12:20:27.188Z,75975.19
2022-11-06T12:22:57.508Z,75964.78
2022-11-06T12:25:34.068Z,75950.22
2022-11-06T12:28:04.183Z,75954.38
2022-11-06T12:30:35.315Z,75937.75
2022-11-06T12:33:11.379Z,75948.16
2022-11-06T12:35:43.180Z,75946.06
2022-11-06T12:38:22.162Z,75958.53
2022-11-06T12:40:56.392Z,75937.75
2022-11-06T12:43:32.481Z,75937.75
2022-11-06T12:46:25.959Z,75937.75
2022-11-06T12:49:11.231Z,75939.84
2022-11-06T12:51:47.607Z,75929.44
2022-11-06T12:54:37.657Z,75937.75
2022-11-06T12:57:14.619Z,75941.91
2022-11-06T13:00:00.434Z,75950.22
2022-11-06T13:02:45.188Z,75966.84
2022-11-06T13:05:18.608Z,75966.84
2022-11-06T13:07:59.226Z,75971.03
2022-11-06T13:10:37.841Z,75966.84
2022-11-06T13:13:22.393Z,75960.63
2022-11-06T13:15:56.330Z,75966.84
2022-11-06T13:18:30.320Z,75966.84
2022-11-06T13:21:03.192Z,75979.34
2022-11-06T13:23:36.580Z,75971.03
2022-11-06T13:26:10.640Z,75975.19
2022-11-06T13:28:44.262Z,75979.34
2022-11-06T13:31:16.143Z,75987.66
2022-11-06T13:33:49.041Z,76004.28
2022-11-06T13:36:18.624Z,76004.28
2022-11-06T13:38:52.469Z,76004.28
2022-11-06T13:41:23.310Z,76006.34
2022-11-06T13:43:57.748Z,75983.50
2022-11-06T13:46:31.292Z,75991.81
2022-11-06T13:49:09.853Z,75995.97
2022-11-06T13:51:46.983Z,76010.50
2022-11-06T13:54:24.783Z,76008.44
2022-11-06T13:57:33.352Z,76029.22
2022-11-06T14:00:18.841Z,76020.91
2022-11-06T14:03:23.111Z,76027.16
2022-11-06T14:05:54.500Z,76025.06
2022-11-06T14:08:27.651Z,76037.53
2022-11-06T14:10:59.816Z,76035.47
2022-11-06T14:13:28.952Z,76033.38
2022-11-06T14:16:03.720Z,76033.38
2022-11-06T14:18:33.107Z,76045.84
2022-11-06T14:21:29.248Z,76058.34
2022-11-06T14:24:07.096Z,76068.72
2022-11-06T14:26:40.002Z,76079.13
2022-11-06T14:29:59.578Z,76087.44
2022-11-06T14:32:40.880Z,76102.00
2022-11-06T14:35:51.432Z,76099.91
2022-11-06T14:38:46.081Z,76108.22
2022-11-06T14:41:57.967Z,76116.53
2022-11-06T14:44:47.189Z,76116.53
2022-11-06T14:47:26.897Z,76124.84
2022-11-06T14:49:58.013Z,76129.00
2022-11-06T14:52:26.595Z,76133.19
2022-11-06T14:55:04.755Z,76141.50
2022-11-06T14:57:45.847Z,76137.34
2022-11-06T15:00:34.136Z,76133.19
2022-11-06T15:03:04.460Z,76139.41
2022-11-06T15:05:42.001Z,76149.81
2022-11-06T15:08:10.762Z,76147.72
2022-11-06T15:10:54.967Z,76137.34
2022-11-06T15:13:29.912Z,76153.97
2022-11-06T15:16:13.388Z,76143.56
2022-11-06T15:18:45.802Z,76135.25
2022-11-06T15:21:23.613Z,76149.81
2022-11-06T15:24:02.704Z,76158.13
2022-11-06T15:26:37.317Z,76141.50
2022-11-06T15:29:17.942Z,76120.69
2022-11-06T15:31:49.780Z,76129.00
2022-11-06T15:34:21.115Z,76129.00
2022-11-06T15:36:53.917Z,76126.94
2022-11-06T15:39:24.061Z,76135.25
2022-11-06T15:41:52.432Z,76124.84
2022-11-06T15:44:21.228Z,76129.00
2022-11-06T15:46:56.109Z,76120.69
2022-11-06T15:49:24.292Z,76124.84
2022-11-06T15:51:56.716Z,76116.53
2022-11-06T15:54:39.164Z,76095.75
2022-11-06T15:57:16.555Z,76118.63
2022-11-06T15:59:44.683Z,76120.69
2022-11-06T16:02:18.463Z,76112.38
2022-11-06T16:04:48.107Z,76118.63
2022-11-06T16:07:20.664Z,76120.69
2022-11-06T16:09:49.102Z,76104.06
2022-11-06T16:12:19.382Z,76095.75
2022-11-06T16:14:47.335Z,76081.19
2022-11-06T16:17:19.383Z,76087.44
2022-11-06T16:19:49.295Z,76091.59
2022-11-06T16:22:20.763Z,76079.13
2022-11-06T16:24:55.607Z,76074.97
2022-11-06T16:27:25.060Z,76070.81
2022-11-06T16:29:56.530Z,76074.97
2022-11-06T16:32:27.730Z,76083.28
2022-11-06T16:34:56.027Z,76099.91
2022-11-06T16:37:39.739Z,76093.69
2022-11-06T16:40:49.035Z,76093.69
2022-11-06T16:43:18.656Z,76091.59
2022-11-06T16:45:55.644Z,76087.44
2022-11-06T16:48:31.876Z,76097.84
2022-11-06T16:51:01.143Z,76099.91
2022-11-06T16:53:32.409Z,76091.59
2022-11-06T16:56:02.497Z,76087.44
2022-11-06T16:58:33.159Z,76091.59
2022-11-06T17:01:03.348Z,76091.59
2022-11-06T17:03:38.932Z,76087.44
2022-11-06T17:06:08.207Z,76083.28
2022-11-06T17:08:39.481Z,76083.28
2022-11-06T17:11:21.611Z,76081.19
2022-11-06T17:13:51.078Z,76093.69
2022-11-06T17:16:21.391Z,76091.59
2022-11-06T17:18:49.246Z,76095.75
2022-11-06T17:21:19.397Z,76089.50
2022-11-06T17:23:48.906Z,76091.59
2022-11-06T17:26:22.363Z,76102.00
2022-11-06T17:28:51.038Z,76099.91
2022-11-06T17:31:21.535Z,76091.59
2022-11-06T17:33:49.846Z,76083.28
2022-11-06T17:36:20.006Z,76087.44
2022-11-06T17:38:49.583Z,76087.44
2022-11-06T17:41:29.760Z,76087.44
2022-11-06T17:43:59.093Z,76079.13
2022-11-06T17:46:28.662Z,76083.28
2022-11-06T17:48:56.939Z,76083.28
2022-11-06T17:51:43.648Z,76085.34
2022-11-06T17:54:12.956Z,76083.28
2022-11-06T17:56:41.225Z,76083.28
2022-11-06T17:59:09.488Z,76083.28
2022-11-06T18:01:38.025Z,76083.28
2022-11-06T18:04:07.218Z,76087.44
2022-11-06T18:06:35.196Z,76085.34
2022-11-06T18:09:04.975Z,76095.75
2022-11-06T18:11:35.198Z,76095.75
2022-11-06T18:14:03.509Z,76091.59
2022-11-06T18:16:38.474Z,76081.19
2022-11-06T18:19:09.948Z,76074.97
2022-11-06T18:21:38.104Z,76081.19
2022-11-06T18:24:06.644Z,76079.13
2022-11-06T18:26:37.337Z,76074.97
2022-11-06T18:29:05.429Z,76070.81
2022-11-06T18:31:33.705Z,76052.09
2022-11-06T18:34:01.559Z,76066.66
2022-11-06T18:36:29.611Z,76062.50
2022-11-06T18:38:57.314Z,76074.97
2022-11-06T18:41:25.586Z,76068.72
2022-11-06T18:43:58.521Z,76060.41
2022-11-06T18:46:27.812Z,76064.56
2022-11-06T18:48:56.643Z,76062.50
2022-11-06T18:51:34.593Z,76062.50
2022-11-06T18:54:06.390Z,76056.25
2022-11-06T18:56:35.931Z,76045.84
2022-11-06T18:59:05.851Z,76041.69
2022-11-06T19:01:35.770Z,76052.09
2022-11-06T19:04:05.856Z,76043.78
2022-11-06T19:06:34.298Z,76033.38
2022-11-06T19:09:01.974Z,76033.38
2022-11-06T19:11:30.663Z,76056.25
2022-11-06T19:13:58.776Z,76052.09
2022-11-06T19:16:28.148Z,76058.34
2022-11-06T19:21:30.664Z,76072.88
2022-11-06T19:24:03.450Z,76079.13
2022-11-06T19:26:34.119Z,76074.97
2022-11-06T19:29:02.148Z,76079.13
2022-11-06T19:31:33.133Z,76079.13
2022-11-06T19:34:02.664Z,76077.03
2022-11-06T19:36:31.457Z,76079.13
2022-11-06T19:38:59.677Z,76077.03
2022-11-06T19:41:28.619Z,76070.81
2022-11-06T19:43:56.545Z,76062.50
2022-11-06T19:46:28.537Z,76062.50
2022-11-06T19:49:03.216Z,76066.66
2022-11-06T19:51:31.658Z,76068.72
2022-11-06T19:54:00.234Z,76058.34
2022-11-06T19:56:28.523Z,76056.25
2022-11-06T19:58:56.250Z,76060.41
2022-11-06T20:01:24.228Z,76045.84
2022-11-06T20:03:52.096Z,76062.50
2022-11-06T20:06:21.839Z,76062.50
2022-11-06T20:08:50.227Z,76070.81
2022-11-06T20:11:18.593Z,76074.97
2022-11-06T20:13:47.064Z,76074.97
2022-11-06T20:16:17.078Z,76081.19
2022-11-06T20:18:45.646Z,76085.34
2022-11-06T20:21:13.699Z,76085.34
2022-11-06T20:23:42.754Z,76074.97
2022-11-06T20:26:11.202Z,76074.97
2022-11-06T20:28:39.040Z,76070.81
2022-11-06T20:31:08.124Z,76079.13
2022-11-06T20:33:36.800Z,76077.03
2022-11-06T20:36:11.068Z,76074.97
2022-11-06T20:38:39.037Z,76066.66
2022-11-06T20:41:08.700Z,76068.72
2022-11-06T20:43:36.433Z,76068.72
2022-11-06T20:46:05.213Z,76085.34
2022-11-06T20:48:34.093Z,76087.44
2022-11-06T20:51:04.466Z,76083.28
2022-11-06T20:53:33.201Z,76093.69
2022-11-06T20:56:02.671Z,76087.44
2022-11-06T20:58:32.487Z,76083.28
2022-11-06T21:01:02.410Z,76095.75
2022-11-06T21:03:30.257Z,76093.69
2022-11-06T21:05:58.299Z,76104.06
2022-11-06T21:08:27.863Z,76104.06
2022-11-06T21:10:58.118Z,76106.16
2022-11-06T21:13:28.761Z,76133.19
2022-11-06T21:16:02.785Z,76141.50
2022-11-06T21:18:31.348Z,76133.19
2022-11-06T21:21:03.584Z,76137.34
2022-11-06T21:23:31.639Z,76135.25
2022-11-06T21:26:04.651Z,76131.09
2022-11-06T21:28:33.363Z,76122.78
2022-11-06T21:31:02.924Z,76116.53
2022-11-06T21:33:30.892Z,76116.53
2022-11-06T21:36:05.862Z,76108.22
2022-11-06T21:38:33.949Z,76095.75
2022-11-06T21:41:05.194Z,76087.44
2022-11-06T21:43:32.949Z,76087.44
2022-11-06T21:46:03.522Z,76085.34
2022-11-06T21:48:47.654Z,76095.75
2022-11-06T21:51:18.628Z,76099.91
2022-11-06T21:54:04.942Z,76112.38
2022-11-06T21:56:33.621Z,76116.53
2022-11-06T21:59:02.260Z,76108.22
2022-11-06T22:01:32.672Z,76112.38
2022-11-06T22:04:01.310Z,76116.53
2022-11-06T22:06:30.932Z,76108.22
2022-11-06T22:09:00.404Z,76108.22
2022-11-06T22:11:30.680Z,76108.22
2022-11-06T22:14:00.470Z,76102.00
2022-11-06T22:16:32.730Z,76110.31
2022-11-06T22:19:00.833Z,76112.38
2022-11-06T22:21:30.845Z,76110.31
2022-11-06T22:23:58.820Z,76108.22
2022-11-06T22:26:29.026Z,76102.00
2022-11-06T22:28:58.469Z,76104.06
2022-11-06T22:31:27.031Z,76131.09
2022-11-06T22:33:56.303Z,76131.09
2022-11-06T22:36:24.914Z,76124.84
2022-11-06T22:38:53.467Z,76122.78
2022-11-06T22:41:23.541Z,76116.53
2022-11-06T22:43:51.984Z,76120.69
2022-11-06T22:46:23.070Z,76104.06
2022-11-06T22:48:52.272Z,76116.53
2022-11-06T22:51:23.943Z,76116.53
2022-11-06T22:53:52.065Z,76129.00
2022-11-06T22:56:20.862Z,76116.53
2022-11-06T22:58:48.896Z,76133.19
2022-11-06T23:01:22.208Z,76126.94
2022-11-06T23:03:50.712Z,76108.22
2022-11-06T23:06:18.656Z,76124.84
2022-11-06T23:08:47.663Z,76126.94
2022-11-06T23:11:17.423Z,76122.78
2022-11-06T23:13:45.826Z,76120.69
2022-11-06T23:16:15.981Z,76120.69
2022-11-06T23:18:44.995Z,76116.53
2022-11-06T23:21:13.902Z,76116.53
2022-11-06T23:23:42.655Z,76112.38
2022-11-06T23:26:16.273Z,76112.38
2022-11-06T23:28:44.872Z,76099.91
2022-11-06T23:31:15.602Z,76095.75
2022-11-06T23:33:44.427Z,76099.91
2022-11-06T23:36:13.932Z,76097.84
2022-11-06T23:38:43.156Z,76112.38
2022-11-06T23:41:27.256Z,76112.38
2022-11-06T23:43:57.852Z,76104.06
2022-11-06T23:46:26.869Z,76116.53
2022-11-06T23:48:55.067Z,76112.38
2022-11-06T23:51:24.369Z,76112.38
2022-11-06T23:53:53.027Z,76099.91
2022-11-06T23:56:21.191Z,76112.38
2022-11-06T23:58:49.600Z,76120.69
